sensor_id;sensor_type;location;lat;lon;timestamp;P1;durP1;ratioP1;P2;durP2;ratioP2
77453;SDS011;66538;53.150;18.160;2023-03-31T00:01:50;20.10;;;10.50;;
77453;SDS011;66538;53.150;18.160;2023-03-31T00:04:18;11.80;;;7.00;;
77453;SDS011;66538;53.150;18.160;2023-03-31T00:06:49;13.10;;;8.10;;
77453;SDS011;66538;53.150;18.160;2023-03-31T00:09:19;13.10;;;6.90;;
77453;SDS011;66538;53.150;18.160;2023-03-31T00:11:50;16.50;;;9.40;;
77453;SDS011;66538;53.150;18.160;2023-03-31T00:14:19;9.00;;;4.70;;
77453;SDS011;66538;53.150;18.160;2023-03-31T00:19:13;15.90;;;8.60;;
77453;SDS011;66538;53.150;18.160;2023-03-31T00:21:47;14.10;;;8.00;;
77453;SDS011;66538;53.150;18.160;2023-03-31T00:24:14;14.90;;;6.00;;
77453;SDS011;66538;53.150;18.160;2023-03-31T00:26:41;13.30;;;8.00;;
77453;SDS011;66538;53.150;18.160;2023-03-31T00:29:09;11.00;;;6.10;;
77453;SDS011;66538;53.150;18.160;2023-03-31T00:31:37;11.20;;;7.10;;
77453;SDS011;66538;53.150;18.160;2023-03-31T00:34:04;14.80;;;8.30;;
77453;SDS011;66538;53.150;18.160;2023-03-31T00:36:33;19.40;;;10.70;;
77453;SDS011;66538;53.150;18.160;2023-03-31T00:41:34;15.20;;;9.10;;
77453;SDS011;66538;53.150;18.160;2023-03-31T00:44:06;13.50;;;7.80;;
77453;SDS011;66538;53.150;18.160;2023-03-31T00:46:38;17.50;;;10.00;;
77453;SDS011;66538;53.150;18.160;2023-03-31T00:49:10;17.80;;;8.20;;
77453;SDS011;66538;53.150;18.160;2023-03-31T00:51:41;24.40;;;13.00;;
77453;SDS011;66538;53.150;18.160;2023-03-31T00:54:09;22.10;;;11.50;;
77453;SDS011;66538;53.150;18.160;2023-03-31T00:56:38;21.50;;;11.40;;
77453;SDS011;66538;53.150;18.160;2023-03-31T00:59:10;19.90;;;9.60;;
77453;SDS011;66538;53.150;18.160;2023-03-31T01:01:38;14.90;;;8.00;;
77453;SDS011;66538;53.150;18.160;2023-03-31T01:04:08;13.10;;;7.30;;
77453;SDS011;66538;53.150;18.160;2023-03-31T01:06:37;21.20;;;9.40;;
77453;SDS011;66538;53.150;18.160;2023-03-31T01:09:14;21.50;;;10.40;;
77453;SDS011;66538;53.150;18.160;2023-03-31T01:11:42;18.80;;;8.90;;
77453;SDS011;66538;53.150;18.160;2023-03-31T01:14:11;23.70;;;12.20;;
77453;SDS011;66538;53.150;18.160;2023-03-31T01:16:38;18.20;;;10.30;;
77453;SDS011;66538;53.150;18.160;2023-03-31T01:19:07;22.00;;;12.00;;
77453;SDS011;66538;53.150;18.160;2023-03-31T01:22:07;17.10;;;9.40;;
77453;SDS011;66538;53.150;18.160;2023-03-31T01:27:58;14.00;;;7.60;;
77453;SDS011;66538;53.150;18.160;2023-03-31T01:36:32;18.70;;;9.80;;
77453;SDS011;66538;53.150;18.160;2023-03-31T01:39:22;17.60;;;10.60;;
77453;SDS011;66538;53.150;18.160;2023-03-31T01:45:04;15.40;;;9.30;;
77453;SDS011;66538;53.150;18.160;2023-03-31T01:47:49;19.40;;;11.90;;
77453;SDS011;66538;53.150;18.160;2023-03-31T01:58:42;19.10;;;8.80;;
77453;SDS011;66538;53.150;18.160;2023-03-31T02:05:17;22.70;;;12.00;;
77453;SDS011;66538;53.150;18.160;2023-03-31T02:07:58;19.60;;;10.80;;
77453;SDS011;66538;53.150;18.160;2023-03-31T02:10:30;16.20;;;8.80;;
77453;SDS011;66538;53.150;18.160;2023-03-31T02:12:58;21.60;;;11.80;;
77453;SDS011;66538;53.150;18.160;2023-03-31T02:15:28;22.40;;;11.80;;
77453;SDS011;66538;53.150;18.160;2023-03-31T02:17:59;16.90;;;9.60;;
77453;SDS011;66538;53.150;18.160;2023-03-31T02:20:31;16.20;;;9.70;;
77453;SDS011;66538;53.150;18.160;2023-03-31T02:22:59;14.70;;;8.20;;
77453;SDS011;66538;53.150;18.160;2023-03-31T02:25:34;19.10;;;10.30;;
77453;SDS011;66538;53.150;18.160;2023-03-31T02:28:08;17.90;;;9.90;;
77453;SDS011;66538;53.150;18.160;2023-03-31T02:30:40;20.00;;;11.00;;
77453;SDS011;66538;53.150;18.160;2023-03-31T02:33:14;17.00;;;10.60;;
77453;SDS011;66538;53.150;18.160;2023-03-31T02:35:43;22.10;;;11.90;;
77453;SDS011;66538;53.150;18.160;2023-03-31T02:38:09;18.50;;;10.30;;
77453;SDS011;66538;53.150;18.160;2023-03-31T02:40:37;18.80;;;10.00;;
77453;SDS011;66538;53.150;18.160;2023-03-31T02:43:03;23.40;;;13.20;;
77453;SDS011;66538;53.150;18.160;2023-03-31T02:45:44;18.60;;;11.80;;
77453;SDS011;66538;53.150;18.160;2023-03-31T02:48:23;24.00;;;13.10;;
77453;SDS011;66538;53.150;18.160;2023-03-31T03:11:47;17.90;;;9.90;;
77453;SDS011;66538;53.150;18.160;2023-03-31T03:14:21;11.90;;;7.60;;
77453;SDS011;66538;53.150;18.160;2023-03-31T03:17:11;10.20;;;5.90;;
77453;SDS011;66538;53.150;18.160;2023-03-31T03:19:42;14.10;;;8.00;;
77453;SDS011;66538;53.150;18.160;2023-03-31T03:22:09;9.90;;;6.10;;
77453;SDS011;66538;53.150;18.160;2023-03-31T03:24:35;12.40;;;8.40;;
77453;SDS011;66538;53.150;18.160;2023-03-31T03:27:02;16.10;;;9.80;;
77453;SDS011;66538;53.150;18.160;2023-03-31T03:29:29;14.70;;;9.50;;
77453;SDS011;66538;53.150;18.160;2023-03-31T03:31:56;14.60;;;7.90;;
77453;SDS011;66538;53.150;18.160;2023-03-31T03:34:22;11.50;;;6.60;;
77453;SDS011;66538;53.150;18.160;2023-03-31T03:36:51;8.60;;;4.20;;
77453;SDS011;66538;53.150;18.160;2023-03-31T03:39:17;11.00;;;5.50;;
77453;SDS011;66538;53.150;18.160;2023-03-31T03:41:44;10.40;;;4.80;;
77453;SDS011;66538;53.150;18.160;2023-03-31T03:44:12;11.50;;;5.40;;
77453;SDS011;66538;53.150;18.160;2023-03-31T03:46:38;8.10;;;4.80;;
77453;SDS011;66538;53.150;18.160;2023-03-31T03:49:05;12.30;;;6.50;;
77453;SDS011;66538;53.150;18.160;2023-03-31T03:51:32;9.00;;;5.60;;
77453;SDS011;66538;53.150;18.160;2023-03-31T03:53:59;10.50;;;5.70;;
77453;SDS011;66538;53.150;18.160;2023-03-31T03:56:26;10.80;;;7.10;;
77453;SDS011;66538;53.150;18.160;2023-03-31T03:58:52;10.00;;;5.80;;
77453;SDS011;66538;53.150;18.160;2023-03-31T04:01:19;7.90;;;5.30;;
77453;SDS011;66538;53.150;18.160;2023-03-31T04:03:46;8.10;;;4.60;;
77453;SDS011;66538;53.150;18.160;2023-03-31T04:06:13;9.70;;;5.10;;
77453;SDS011;66538;53.150;18.160;2023-03-31T04:08:39;9.90;;;5.80;;
77453;SDS011;66538;53.150;18.160;2023-03-31T04:11:13;10.60;;;7.40;;
77453;SDS011;66538;53.150;18.160;2023-03-31T04:13:43;12.30;;;7.90;;
77453;SDS011;66538;53.150;18.160;2023-03-31T04:16:10;13.40;;;9.20;;
77453;SDS011;66538;53.150;18.160;2023-03-31T04:18:37;12.30;;;7.60;;
77453;SDS011;66538;53.150;18.160;2023-03-31T04:21:11;16.00;;;7.90;;
77453;SDS011;66538;53.150;18.160;2023-03-31T04:23:41;8.90;;;5.20;;
77453;SDS011;66538;53.150;18.160;2023-03-31T04:26:12;12.10;;;6.10;;
77453;SDS011;66538;53.150;18.160;2023-03-31T04:28:40;14.40;;;7.70;;
77453;SDS011;66538;53.150;18.160;2023-03-31T04:31:08;13.00;;;8.40;;
77453;SDS011;66538;53.150;18.160;2023-03-31T04:33:36;18.10;;;9.40;;
77453;SDS011;66538;53.150;18.160;2023-03-31T04:36:05;15.90;;;10.40;;
77453;SDS011;66538;53.150;18.160;2023-03-31T04:38:45;22.60;;;13.30;;
77453;SDS011;66538;53.150;18.160;2023-03-31T04:41:16;24.50;;;15.40;;
77453;SDS011;66538;53.150;18.160;2023-03-31T04:43:43;18.30;;;9.20;;
77453;SDS011;66538;53.150;18.160;2023-03-31T04:46:09;21.20;;;13.20;;
77453;SDS011;66538;53.150;18.160;2023-03-31T04:48:36;28.40;;;15.20;;
77453;SDS011;66538;53.150;18.160;2023-03-31T04:51:03;30.40;;;16.00;;
77453;SDS011;66538;53.150;18.160;2023-03-31T04:53:30;14.70;;;9.40;;
77453;SDS011;66538;53.150;18.160;2023-03-31T04:55:57;17.50;;;10.50;;
77453;SDS011;66538;53.150;18.160;2023-03-31T04:58:24;18.80;;;10.00;;
77453;SDS011;66538;53.150;18.160;2023-03-31T05:00:51;14.80;;;8.60;;
77453;SDS011;66538;53.150;18.160;2023-03-31T05:03:18;20.60;;;12.30;;
77453;SDS011;66538;53.150;18.160;2023-03-31T05:05:45;23.70;;;12.40;;
77453;SDS011;66538;53.150;18.160;2023-03-31T05:08:12;25.30;;;13.60;;
77453;SDS011;66538;53.150;18.160;2023-03-31T05:10:38;16.30;;;9.20;;
77453;SDS011;66538;53.150;18.160;2023-03-31T05:13:05;12.90;;;8.10;;
77453;SDS011;66538;53.150;18.160;2023-03-31T05:15:31;18.10;;;9.90;;
77453;SDS011;66538;53.150;18.160;2023-03-31T05:18:01;15.70;;;10.00;;
77453;SDS011;66538;53.150;18.160;2023-03-31T05:20:27;12.90;;;8.50;;
77453;SDS011;66538;53.150;18.160;2023-03-31T05:22:54;15.00;;;8.50;;
77453;SDS011;66538;53.150;18.160;2023-03-31T05:25:21;12.20;;;6.50;;
77453;SDS011;66538;53.150;18.160;2023-03-31T05:27:48;13.60;;;6.90;;
77453;SDS011;66538;53.150;18.160;2023-03-31T05:30:16;10.30;;;5.60;;
77453;SDS011;66538;53.150;18.160;2023-03-31T05:32:43;14.80;;;7.80;;
77453;SDS011;66538;53.150;18.160;2023-03-31T05:35:10;17.30;;;9.10;;
77453;SDS011;66538;53.150;18.160;2023-03-31T05:37:37;13.90;;;8.10;;
77453;SDS011;66538;53.150;18.160;2023-03-31T05:40:03;14.90;;;7.10;;
77453;SDS011;66538;53.150;18.160;2023-03-31T05:42:31;13.60;;;7.30;;
77453;SDS011;66538;53.150;18.160;2023-03-31T05:44:57;12.20;;;6.40;;
77453;SDS011;66538;53.150;18.160;2023-03-31T05:47:24;13.00;;;6.80;;
77453;SDS011;66538;53.150;18.160;2023-03-31T05:49:51;13.10;;;6.30;;
77453;SDS011;66538;53.150;18.160;2023-03-31T05:52:18;12.10;;;6.70;;
77453;SDS011;66538;53.150;18.160;2023-03-31T05:54:45;13.30;;;6.90;;
77453;SDS011;66538;53.150;18.160;2023-03-31T05:57:12;16.00;;;6.80;;
77453;SDS011;66538;53.150;18.160;2023-03-31T05:59:38;11.00;;;6.60;;
77453;SDS011;66538;53.150;18.160;2023-03-31T06:02:07;16.30;;;7.90;;
77453;SDS011;66538;53.150;18.160;2023-03-31T06:04:37;13.30;;;7.80;;
77453;SDS011;66538;53.150;18.160;2023-03-31T06:07:05;11.50;;;7.00;;
77453;SDS011;66538;53.150;18.160;2023-03-31T06:09:31;21.60;;;8.90;;
77453;SDS011;66538;53.150;18.160;2023-03-31T06:11:58;18.50;;;9.40;;
77453;SDS011;66538;53.150;18.160;2023-03-31T06:14:25;19.20;;;9.10;;
77453;SDS011;66538;53.150;18.160;2023-03-31T06:16:53;15.40;;;8.60;;
77453;SDS011;66538;53.150;18.160;2023-03-31T06:19:22;18.90;;;9.60;;
77453;SDS011;66538;53.150;18.160;2023-03-31T06:21:50;14.90;;;8.50;;
77453;SDS011;66538;53.150;18.160;2023-03-31T06:24:17;16.90;;;9.20;;
77453;SDS011;66538;53.150;18.160;2023-03-31T06:26:44;18.30;;;9.00;;
77453;SDS011;66538;53.150;18.160;2023-03-31T06:29:10;23.10;;;11.00;;
77453;SDS011;66538;53.150;18.160;2023-03-31T06:31:37;15.10;;;7.90;;
77453;SDS011;66538;53.150;18.160;2023-03-31T06:34:03;14.60;;;7.40;;
77453;SDS011;66538;53.150;18.160;2023-03-31T06:36:30;15.40;;;7.80;;
77453;SDS011;66538;53.150;18.160;2023-03-31T06:38:57;10.90;;;6.50;;
77453;SDS011;66538;53.150;18.160;2023-03-31T06:41:23;12.80;;;6.50;;
77453;SDS011;66538;53.150;18.160;2023-03-31T06:43:50;12.20;;;6.20;;
77453;SDS011;66538;53.150;18.160;2023-03-31T06:46:17;8.90;;;4.50;;
77453;SDS011;66538;53.150;18.160;2023-03-31T06:48:43;9.50;;;5.30;;
77453;SDS011;66538;53.150;18.160;2023-03-31T06:51:10;9.60;;;5.10;;
77453;SDS011;66538;53.150;18.160;2023-03-31T06:53:37;9.40;;;5.30;;
77453;SDS011;66538;53.150;18.160;2023-03-31T06:56:04;10.40;;;4.80;;
77453;SDS011;66538;53.150;18.160;2023-03-31T06:58:31;10.30;;;5.80;;
77453;SDS011;66538;53.150;18.160;2023-03-31T07:01:00;11.20;;;5.60;;
77453;SDS011;66538;53.150;18.160;2023-03-31T07:03:28;10.80;;;5.30;;
77453;SDS011;66538;53.150;18.160;2023-03-31T07:05:55;12.30;;;6.20;;
77453;SDS011;66538;53.150;18.160;2023-03-31T07:08:23;12.10;;;5.60;;
77453;SDS011;66538;53.150;18.160;2023-03-31T07:10:55;12.20;;;6.30;;
77453;SDS011;66538;53.150;18.160;2023-03-31T07:13:23;10.10;;;4.80;;
77453;SDS011;66538;53.150;18.160;2023-03-31T07:15:51;10.70;;;5.10;;
77453;SDS011;66538;53.150;18.160;2023-03-31T07:18:21;12.10;;;7.50;;
77453;SDS011;66538;53.150;18.160;2023-03-31T07:20:51;11.70;;;6.80;;
77453;SDS011;66538;53.150;18.160;2023-03-31T07:23:18;12.10;;;6.50;;
77453;SDS011;66538;53.150;18.160;2023-03-31T07:25:46;16.00;;;7.70;;
77453;SDS011;66538;53.150;18.160;2023-03-31T07:28:13;16.90;;;7.80;;
77453;SDS011;66538;53.150;18.160;2023-03-31T07:30:41;13.60;;;6.10;;
77453;SDS011;66538;53.150;18.160;2023-03-31T07:33:08;14.60;;;8.00;;
77453;SDS011;66538;53.150;18.160;2023-03-31T07:35:38;11.80;;;6.90;;
77453;SDS011;66538;53.150;18.160;2023-03-31T07:38:07;13.10;;;7.00;;
77453;SDS011;66538;53.150;18.160;2023-03-31T07:40:35;13.50;;;7.20;;
77453;SDS011;66538;53.150;18.160;2023-03-31T07:43:02;7.50;;;3.90;;
77453;SDS011;66538;53.150;18.160;2023-03-31T07:45:29;8.40;;;4.60;;
77453;SDS011;66538;53.150;18.160;2023-03-31T07:47:56;9.50;;;4.30;;
77453;SDS011;66538;53.150;18.160;2023-03-31T07:50:22;12.90;;;6.10;;
77453;SDS011;66538;53.150;18.160;2023-03-31T07:52:50;10.10;;;5.40;;
77453;SDS011;66538;53.150;18.160;2023-03-31T07:55:17;7.80;;;4.40;;
77453;SDS011;66538;53.150;18.160;2023-03-31T07:57:45;8.60;;;4.70;;
77453;SDS011;66538;53.150;18.160;2023-03-31T08:00:13;10.30;;;5.00;;
77453;SDS011;66538;53.150;18.160;2023-03-31T08:02:41;7.30;;;4.40;;
77453;SDS011;66538;53.150;18.160;2023-03-31T08:05:10;8.30;;;5.10;;
77453;SDS011;66538;53.150;18.160;2023-03-31T08:07:39;8.30;;;3.80;;
77453;SDS011;66538;53.150;18.160;2023-03-31T08:10:08;7.30;;;4.00;;
77453;SDS011;66538;53.150;18.160;2023-03-31T08:12:37;10.20;;;4.70;;
77453;SDS011;66538;53.150;18.160;2023-03-31T08:15:04;7.80;;;2.90;;
77453;SDS011;66538;53.150;18.160;2023-03-31T08:17:31;10.00;;;4.50;;
77453;SDS011;66538;53.150;18.160;2023-03-31T08:19:58;8.60;;;5.30;;
77453;SDS011;66538;53.150;18.160;2023-03-31T08:22:25;6.50;;;3.70;;
77453;SDS011;66538;53.150;18.160;2023-03-31T08:24:52;8.10;;;4.00;;
77453;SDS011;66538;53.150;18.160;2023-03-31T08:27:18;9.50;;;4.00;;
77453;SDS011;66538;53.150;18.160;2023-03-31T08:29:45;8.20;;;3.80;;
77453;SDS011;66538;53.150;18.160;2023-03-31T08:32:11;11.60;;;5.00;;
77453;SDS011;66538;53.150;18.160;2023-03-31T08:34:38;11.60;;;5.50;;
77453;SDS011;66538;53.150;18.160;2023-03-31T08:37:08;10.50;;;5.00;;
77453;SDS011;66538;53.150;18.160;2023-03-31T08:39:35;13.20;;;6.60;;
77453;SDS011;66538;53.150;18.160;2023-03-31T08:42:06;12.00;;;6.00;;
77453;SDS011;66538;53.150;18.160;2023-03-31T08:44:44;8.40;;;4.10;;
77453;SDS011;66538;53.150;18.160;2023-03-31T08:47:21;9.60;;;4.90;;
77453;SDS011;66538;53.150;18.160;2023-03-31T08:49:53;8.40;;;4.40;;
77453;SDS011;66538;53.150;18.160;2023-03-31T08:55:00;13.70;;;7.30;;
77453;SDS011;66538;53.150;18.160;2023-03-31T08:57:42;10.70;;;6.20;;
77453;SDS011;66538;53.150;18.160;2023-03-31T09:00:19;10.20;;;5.40;;
77453;SDS011;66538;53.150;18.160;2023-03-31T09:02:55;9.00;;;4.10;;
77453;SDS011;66538;53.150;18.160;2023-03-31T09:13:50;17.00;;;8.90;;
77453;SDS011;66538;53.150;18.160;2023-03-31T09:19:01;10.00;;;4.60;;
77453;SDS011;66538;53.150;18.160;2023-03-31T09:21:32;8.40;;;3.80;;
77453;SDS011;66538;53.150;18.160;2023-03-31T09:26:41;8.30;;;4.70;;
77453;SDS011;66538;53.150;18.160;2023-03-31T09:29:32;13.90;;;8.50;;
77453;SDS011;66538;53.150;18.160;2023-03-31T09:32:25;12.90;;;7.10;;
77453;SDS011;66538;53.150;18.160;2023-03-31T09:35:11;7.70;;;4.50;;
77453;SDS011;66538;53.150;18.160;2023-03-31T09:37:42;9.70;;;4.10;;
77453;SDS011;66538;53.150;18.160;2023-03-31T09:40:13;8.80;;;4.90;;
77453;SDS011;66538;53.150;18.160;2023-03-31T09:42:44;9.40;;;3.90;;
77453;SDS011;66538;53.150;18.160;2023-03-31T09:45:15;9.60;;;5.10;;
77453;SDS011;66538;53.150;18.160;2023-03-31T09:47:44;9.50;;;4.80;;
77453;SDS011;66538;53.150;18.160;2023-03-31T09:50:13;6.70;;;3.90;;
77453;SDS011;66538;53.150;18.160;2023-03-31T09:52:51;11.20;;;4.70;;
77453;SDS011;66538;53.150;18.160;2023-03-31T09:55:22;11.80;;;5.50;;
77453;SDS011;66538;53.150;18.160;2023-03-31T09:57:49;12.90;;;8.00;;
77453;SDS011;66538;53.150;18.160;2023-03-31T10:00:17;10.50;;;4.80;;
77453;SDS011;66538;53.150;18.160;2023-03-31T10:02:49;9.30;;;4.50;;
77453;SDS011;66538;53.150;18.160;2023-03-31T10:13:34;9.40;;;4.40;;
77453;SDS011;66538;53.150;18.160;2023-03-31T10:16:08;11.20;;;5.50;;
77453;SDS011;66538;53.150;18.160;2023-03-31T10:21:24;7.70;;;3.60;;
77453;SDS011;66538;53.150;18.160;2023-03-31T10:23:53;7.80;;;4.50;;
77453;SDS011;66538;53.150;18.160;2023-03-31T10:26:21;10.80;;;4.70;;
77453;SDS011;66538;53.150;18.160;2023-03-31T10:28:51;7.40;;;3.70;;
77453;SDS011;66538;53.150;18.160;2023-03-31T10:31:24;11.30;;;4.40;;
77453;SDS011;66538;53.150;18.160;2023-03-31T10:33:52;9.80;;;4.70;;
77453;SDS011;66538;53.150;18.160;2023-03-31T10:38:49;7.70;;;3.80;;
77453;SDS011;66538;53.150;18.160;2023-03-31T10:41:19;8.70;;;4.30;;
77453;SDS011;66538;53.150;18.160;2023-03-31T10:43:49;9.30;;;4.00;;
77453;SDS011;66538;53.150;18.160;2023-03-31T10:51:56;7.30;;;3.60;;
77453;SDS011;66538;53.150;18.160;2023-03-31T10:54:25;9.20;;;3.60;;
77453;SDS011;66538;53.150;18.160;2023-03-31T10:56:59;6.10;;;3.00;;
77453;SDS011;66538;53.150;18.160;2023-03-31T11:05:45;8.40;;;3.60;;
77453;SDS011;66538;53.150;18.160;2023-03-31T11:16:31;6.90;;;2.80;;
77453;SDS011;66538;53.150;18.160;2023-03-31T11:24:43;7.20;;;3.00;;
77453;SDS011;66538;53.150;18.160;2023-03-31T11:30:28;7.70;;;3.00;;
77453;SDS011;66538;53.150;18.160;2023-03-31T11:33:04;7.80;;;3.20;;
77453;SDS011;66538;53.150;18.160;2023-03-31T11:35:49;8.70;;;3.20;;
77453;SDS011;66538;53.150;18.160;2023-03-31T11:39:02;9.50;;;4.60;;
77453;SDS011;66538;53.150;18.160;2023-03-31T11:41:44;4.80;;;2.30;;
77453;SDS011;66538;53.150;18.160;2023-03-31T11:44:15;6.00;;;2.60;;
77453;SDS011;66538;53.150;18.160;2023-03-31T11:49:22;6.50;;;3.30;;
77453;SDS011;66538;53.150;18.160;2023-03-31T11:52:08;8.10;;;3.40;;
77453;SDS011;66538;53.150;18.160;2023-03-31T12:00:35;14.70;;;6.80;;
77453;SDS011;66538;53.150;18.160;2023-03-31T12:03:13;7.10;;;3.30;;
77453;SDS011;66538;53.150;18.160;2023-03-31T12:05:46;8.30;;;3.10;;
77453;SDS011;66538;53.150;18.160;2023-03-31T12:08:18;7.70;;;3.20;;
77453;SDS011;66538;53.150;18.160;2023-03-31T12:16:53;7.30;;;3.50;;
77453;SDS011;66538;53.150;18.160;2023-03-31T12:19:45;5.60;;;2.60;;
77453;SDS011;66538;53.150;18.160;2023-03-31T12:22:23;10.40;;;2.80;;
77453;SDS011;66538;53.150;18.160;2023-03-31T12:24:53;7.10;;;2.50;;
77453;SDS011;66538;53.150;18.160;2023-03-31T12:27:23;9.80;;;2.40;;
77453;SDS011;66538;53.150;18.160;2023-03-31T12:29:55;5.60;;;2.40;;
77453;SDS011;66538;53.150;18.160;2023-03-31T12:32:26;6.40;;;2.30;;
77453;SDS011;66538;53.150;18.160;2023-03-31T12:46:09;8.20;;;2.50;;
77453;SDS011;66538;53.150;18.160;2023-03-31T12:54:15;6.50;;;2.10;;
77453;SDS011;66538;53.150;18.160;2023-03-31T12:59:35;7.60;;;2.30;;
77453;SDS011;66538;53.150;18.160;2023-03-31T13:04:40;8.20;;;3.10;;
77453;SDS011;66538;53.150;18.160;2023-03-31T13:07:12;8.80;;;3.10;;
77453;SDS011;66538;53.150;18.160;2023-03-31T13:12:59;5.50;;;2.40;;
77453;SDS011;66538;53.150;18.160;2023-03-31T13:15:27;6.80;;;2.60;;
77453;SDS011;66538;53.150;18.160;2023-03-31T13:18:02;7.50;;;2.40;;
77453;SDS011;66538;53.150;18.160;2023-03-31T13:23:08;10.30;;;4.10;;
77453;SDS011;66538;53.150;18.160;2023-03-31T13:25:45;7.30;;;3.30;;
77453;SDS011;66538;53.150;18.160;2023-03-31T13:28:16;11.00;;;4.60;;
77453;SDS011;66538;53.150;18.160;2023-03-31T13:36:27;14.50;;;6.30;;
77453;SDS011;66538;53.150;18.160;2023-03-31T13:50:16;24.60;;;12.70;;
77453;SDS011;66538;53.150;18.160;2023-03-31T13:52:54;26.00;;;17.40;;
77453;SDS011;66538;53.150;18.160;2023-03-31T14:03:53;17.20;;;11.90;;
77453;SDS011;66538;53.150;18.160;2023-03-31T14:06:39;14.60;;;9.80;;
77453;SDS011;66538;53.150;18.160;2023-03-31T14:09:16;10.60;;;6.50;;
77453;SDS011;66538;53.150;18.160;2023-03-31T14:11:51;11.40;;;6.40;;
77453;SDS011;66538;53.150;18.160;2023-03-31T14:14:17;11.00;;;6.40;;
77453;SDS011;66538;53.150;18.160;2023-03-31T14:16:47;10.10;;;5.70;;
77453;SDS011;66538;53.150;18.160;2023-03-31T14:32:46;8.00;;;4.60;;
77453;SDS011;66538;53.150;18.160;2023-03-31T14:35:37;8.20;;;4.40;;
77453;SDS011;66538;53.150;18.160;2023-03-31T14:38:17;7.20;;;3.70;;
77453;SDS011;66538;53.150;18.160;2023-03-31T14:40:46;7.10;;;3.90;;
77453;SDS011;66538;53.150;18.160;2023-03-31T14:43:25;7.20;;;3.80;;
77453;SDS011;66538;53.150;18.160;2023-03-31T14:48:44;9.00;;;3.90;;
77453;SDS011;66538;53.150;18.160;2023-03-31T14:51:13;9.10;;;4.20;;
77453;SDS011;66538;53.150;18.160;2023-03-31T14:53:41;6.10;;;3.80;;
77453;SDS011;66538;53.150;18.160;2023-03-31T14:56:11;7.00;;;3.90;;
77453;SDS011;66538;53.150;18.160;2023-03-31T14:58:43;8.10;;;4.10;;
77453;SDS011;66538;53.150;18.160;2023-03-31T15:01:17;8.70;;;3.90;;
77453;SDS011;66538;53.150;18.160;2023-03-31T15:03:49;7.90;;;4.80;;
77453;SDS011;66538;53.150;18.160;2023-03-31T15:06:18;10.80;;;5.30;;
77453;SDS011;66538;53.150;18.160;2023-03-31T15:08:45;11.40;;;7.40;;
77453;SDS011;66538;53.150;18.160;2023-03-31T15:11:13;9.70;;;4.80;;
77453;SDS011;66538;53.150;18.160;2023-03-31T15:13:44;12.20;;;5.50;;
77453;SDS011;66538;53.150;18.160;2023-03-31T15:16:20;14.30;;;7.50;;
77453;SDS011;66538;53.150;18.160;2023-03-31T15:18:56;15.70;;;7.80;;
77453;SDS011;66538;53.150;18.160;2023-03-31T15:21:26;17.80;;;9.30;;
77453;SDS011;66538;53.150;18.160;2023-03-31T15:23:54;16.30;;;8.60;;
77453;SDS011;66538;53.150;18.160;2023-03-31T15:26:24;10.30;;;5.30;;
77453;SDS011;66538;53.150;18.160;2023-03-31T15:28:58;7.60;;;3.40;;
77453;SDS011;66538;53.150;18.160;2023-03-31T15:31:29;5.30;;;2.40;;
77453;SDS011;66538;53.150;18.160;2023-03-31T15:33:57;7.60;;;3.90;;
77453;SDS011;66538;53.150;18.160;2023-03-31T15:36:24;8.50;;;3.40;;
77453;SDS011;66538;53.150;18.160;2023-03-31T15:38:55;8.10;;;3.90;;
77453;SDS011;66538;53.150;18.160;2023-03-31T15:41:27;7.00;;;3.50;;
77453;SDS011;66538;53.150;18.160;2023-03-31T15:44:06;9.80;;;5.10;;
77453;SDS011;66538;53.150;18.160;2023-03-31T15:46:59;18.20;;;11.00;;
77453;SDS011;66538;53.150;18.160;2023-03-31T15:49:27;7.40;;;4.20;;
77453;SDS011;66538;53.150;18.160;2023-03-31T15:51:54;8.50;;;4.70;;
77453;SDS011;66538;53.150;18.160;2023-03-31T15:56:59;9.40;;;6.40;;
77453;SDS011;66538;53.150;18.160;2023-03-31T15:59:28;10.60;;;5.10;;
77453;SDS011;66538;53.150;18.160;2023-03-31T16:01:56;7.40;;;4.10;;
77453;SDS011;66538;53.150;18.160;2023-03-31T16:04:29;10.00;;;4.90;;
77453;SDS011;66538;53.150;18.160;2023-03-31T16:07:04;7.20;;;3.70;;
77453;SDS011;66538;53.150;18.160;2023-03-31T16:09:39;8.90;;;4.10;;
77453;SDS011;66538;53.150;18.160;2023-03-31T16:12:23;9.60;;;4.30;;
77453;SDS011;66538;53.150;18.160;2023-03-31T16:17:53;15.40;;;9.00;;
77453;SDS011;66538;53.150;18.160;2023-03-31T16:20:24;18.10;;;11.30;;
77453;SDS011;66538;53.150;18.160;2023-03-31T16:22:55;11.90;;;6.80;;
77453;SDS011;66538;53.150;18.160;2023-03-31T16:25:28;18.10;;;7.70;;
77453;SDS011;66538;53.150;18.160;2023-03-31T16:27:57;20.00;;;10.70;;
77453;SDS011;66538;53.150;18.160;2023-03-31T16:30:34;15.80;;;8.70;;
77453;SDS011;66538;53.150;18.160;2023-03-31T16:33:10;15.60;;;8.20;;
77453;SDS011;66538;53.150;18.160;2023-03-31T16:35:39;10.40;;;6.90;;
77453;SDS011;66538;53.150;18.160;2023-03-31T16:38:09;11.80;;;7.00;;
77453;SDS011;66538;53.150;18.160;2023-03-31T16:40:38;10.60;;;6.60;;
77453;SDS011;66538;53.150;18.160;2023-03-31T16:43:07;10.50;;;6.60;;
77453;SDS011;66538;53.150;18.160;2023-03-31T16:45:48;14.40;;;7.90;;
77453;SDS011;66538;53.150;18.160;2023-03-31T16:48:19;14.60;;;7.40;;
77453;SDS011;66538;53.150;18.160;2023-03-31T16:50:48;14.00;;;7.40;;
77453;SDS011;66538;53.150;18.160;2023-03-31T16:53:22;10.40;;;5.90;;
77453;SDS011;66538;53.150;18.160;2023-03-31T16:55:52;14.70;;;7.90;;
77453;SDS011;66538;53.150;18.160;2023-03-31T16:58:19;14.90;;;8.50;;
77453;SDS011;66538;53.150;18.160;2023-03-31T17:00:46;15.90;;;9.60;;
77453;SDS011;66538;53.150;18.160;2023-03-31T17:03:13;14.50;;;8.60;;
77453;SDS011;66538;53.150;18.160;2023-03-31T17:05:42;14.80;;;8.80;;
77453;SDS011;66538;53.150;18.160;2023-03-31T17:08:11;15.80;;;9.70;;
77453;SDS011;66538;53.150;18.160;2023-03-31T17:10:38;14.10;;;9.10;;
77453;SDS011;66538;53.150;18.160;2023-03-31T17:13:06;11.60;;;6.80;;
77453;SDS011;66538;53.150;18.160;2023-03-31T17:15:34;23.40;;;13.00;;
77453;SDS011;66538;53.150;18.160;2023-03-31T17:18:01;44.40;;;22.30;;
77453;SDS011;66538;53.150;18.160;2023-03-31T17:20:29;64.50;;;29.90;;
77453;SDS011;66538;53.150;18.160;2023-03-31T17:22:56;84.40;;;35.00;;
77453;SDS011;66538;53.150;18.160;2023-03-31T17:25:24;86.30;;;36.90;;
77453;SDS011;66538;53.150;18.160;2023-03-31T17:27:51;85.10;;;35.80;;
77453;SDS011;66538;53.150;18.160;2023-03-31T17:30:18;76.80;;;33.50;;
77453;SDS011;66538;53.150;18.160;2023-03-31T17:32:44;59.30;;;27.20;;
77453;SDS011;66538;53.150;18.160;2023-03-31T17:35:11;54.50;;;23.60;;
77453;SDS011;66538;53.150;18.160;2023-03-31T17:37:48;34.90;;;16.20;;
77453;SDS011;66538;53.150;18.160;2023-03-31T17:40:19;29.80;;;13.80;;
77453;SDS011;66538;53.150;18.160;2023-03-31T17:42:49;22.00;;;11.00;;
77453;SDS011;66538;53.150;18.160;2023-03-31T17:45:16;21.10;;;10.70;;
77453;SDS011;66538;53.150;18.160;2023-03-31T17:47:42;21.30;;;11.10;;
77453;SDS011;66538;53.150;18.160;2023-03-31T17:50:11;20.10;;;9.70;;
77453;SDS011;66538;53.150;18.160;2023-03-31T17:52:38;17.80;;;9.10;;
77453;SDS011;66538;53.150;18.160;2023-03-31T17:55:04;19.30;;;10.10;;
77453;SDS011;66538;53.150;18.160;2023-03-31T17:57:31;18.90;;;10.40;;
77453;SDS011;66538;53.150;18.160;2023-03-31T17:59:58;17.80;;;9.70;;
77453;SDS011;66538;53.150;18.160;2023-03-31T18:02:24;15.80;;;8.70;;